createdAt,value
2019-04-14T00:01:02.227Z,101861.44
2019-04-14T00:03:39.016Z,101861.55
2019-04-14T00:06:11.274Z,101863.38
2019-04-14T00:08:43.743Z,101866.90
2019-04-14T00:11:16.909Z,101864.73
2019-04-14T00:13:48.562Z,101859.78
2019-04-14T00:16:20.638Z,101857.20
2019-04-14T00:18:51.761Z,101860.16
2019-04-14T00:21:23.650Z,101861.67
2019-04-14T00:23:55.198Z,101862.63
2019-04-14T00:26:31.979Z,101855.75
2019-04-14T00:29:04.487Z,101863.50
2019-04-14T00:31:37.122Z,101857.17
2019-04-14T00:34:22.673Z,101851.99
2019-04-14T00:37:12.206Z,101850.20
2019-04-14T00:39:48.954Z,101852.42
2019-04-14T00:42:28.229Z,101846.42
2019-04-14T00:45:02.738Z,101850.32
2019-04-14T00:47:50.868Z,101851.33
2019-04-14T00:50:10.286Z,101852.73
2019-04-14T00:52:41.595Z,101847.83
2019-04-14T00:55:13.994Z,101847.09
2019-04-14T00:57:46.302Z,101850.16
2019-04-14T01:00:19.233Z,101846.52
2019-04-14T01:02:51.568Z,101847.08
2019-04-14T01:05:24.104Z,101853.25
2019-04-14T01:07:56.533Z,101849.91
2019-04-14T01:10:28.178Z,101849.41
2019-04-14T01:13:00.532Z,101864.84
2019-04-14T01:15:44.850Z,101856.27
2019-04-14T01:18:05.757Z,101853.20
2019-04-14T01:20:38.435Z,101855.07
2019-04-14T01:23:10.648Z,101860.05
2019-04-14T01:25:43.256Z,101859.98
2019-04-14T01:28:15.741Z,101851.05
2019-04-14T01:30:48.025Z,101861.81
2019-04-14T01:33:20.503Z,101856.75
2019-04-14T01:35:53.127Z,101863.30
2019-04-14T01:38:25.535Z,101861.20
2019-04-14T01:40:57.763Z,101865.48
2019-04-14T01:43:29.985Z,101867.28
2019-04-14T01:46:10.533Z,101867.97
2019-04-14T01:48:34.662Z,101866.73
2019-04-14T01:51:22.691Z,101864.08
2019-04-14T01:54:13.291Z,101871.85
2019-04-14T01:57:00.285Z,101867.05
2019-04-14T01:59:32.642Z,101863.48
2019-04-14T02:02:05.054Z,101868.42
2019-04-14T02:04:37.527Z,101863.73
2019-04-14T02:07:08.399Z,101860.68
2019-04-14T02:09:40.140Z,101861.25
2019-04-14T02:12:12.686Z,101865.68
2019-04-14T02:14:45.150Z,101860.27
2019-04-14T02:17:17.754Z,101858.41
2019-04-14T02:19:50.214Z,101867.99
2019-04-14T02:22:22.394Z,101863.56
2019-04-14T02:24:54.914Z,101861.27
2019-04-14T02:27:27.406Z,101860.52
2019-04-14T02:30:00.191Z,101858.03
2019-04-14T02:33:11.117Z,101862.20
2019-04-14T02:35:40.726Z,101861.09
2019-04-14T02:38:13.797Z,101860.13
2019-04-14T02:40:43.805Z,101864.63
2019-04-14T02:43:16.498Z,101861.27
2019-04-14T02:50:47.716Z,101862.19
2019-04-14T02:53:23.987Z,101863.61
2019-04-14T02:56:11.968Z,101861.75
2019-04-14T02:58:40.288Z,101868.41
2019-04-14T03:01:21.281Z,101864.52
2019-04-14T03:06:10.416Z,101866.02
2019-04-14T03:08:51.995Z,101864.44
2019-04-14T03:11:20.664Z,101864.52
2019-04-14T03:16:49.074Z,101864.88
2019-04-14T03:19:00.042Z,101860.23
2019-04-14T03:21:45.182Z,101866.63
2019-04-14T03:24:26.960Z,101865.89
2019-04-14T03:29:51.971Z,101867.75
2019-04-14T03:32:39.043Z,101865.22
2019-04-14T03:35:30.495Z,101863.52
2019-04-14T03:37:45.299Z,101868.06
2019-04-14T03:39:51.188Z,101858.88
2019-04-14T03:42:35.557Z,101865.00
2019-04-14T03:45:11.172Z,101867.60
2019-04-14T03:47:34.835Z,101866.98
2019-04-14T03:50:12.108Z,101862.88
2019-04-14T03:53:15.834Z,101865.03
2019-04-14T03:55:05.755Z,101854.39
2019-04-14T03:57:21.504Z,101858.19
2019-04-14T03:59:54.172Z,101859.55
2019-04-14T04:02:25.599Z,101854.16
2019-04-14T04:04:57.729Z,101851.00
2019-04-14T04:07:28.377Z,101864.60
2019-04-14T04:10:05.009Z,101853.89
2019-04-14T04:12:37.791Z,101855.23
2019-04-14T04:15:10.396Z,101854.95
2019-04-14T04:17:49.511Z,101867.16
2019-04-14T04:20:26.367Z,101863.77
2019-04-14T04:23:00.849Z,101866.06
2019-04-14T04:25:37.868Z,101863.87
2019-04-14T04:28:27.866Z,101864.94
2019-04-14T04:31:11.001Z,101867.33
2019-04-14T04:33:44.222Z,101866.44
2019-04-14T04:36:36.343Z,101866.88
2019-04-14T04:39:14.893Z,101864.09
2019-04-14T04:41:47.272Z,101867.71
2019-04-14T04:44:18.615Z,101874.47
2019-04-14T04:46:50.482Z,101876.16
2019-04-14T04:49:26.042Z,101873.18
2019-04-14T04:51:57.186Z,101879.36
2019-04-14T04:54:30.106Z,101874.64
2019-04-14T04:57:02.481Z,101874.16
2019-04-14T04:59:34.341Z,101877.00
2019-04-14T05:02:07.215Z,101880.80
2019-04-14T05:04:39.438Z,101888.69
2019-04-14T05:07:12.173Z,101886.27
2019-04-14T05:10:02.657Z,101884.17
2019-04-14T05:12:39.219Z,101888.42
2019-04-14T05:15:29.110Z,101892.70
2019-04-14T05:18:00.548Z,101892.19
2019-04-14T05:20:31.994Z,101896.64
2019-04-14T05:23:03.746Z,101893.44
2019-04-14T05:25:36.473Z,101893.63
2019-04-14T05:28:09.112Z,101899.17
2019-04-14T05:30:42.025Z,101895.50
2019-04-14T05:33:14.125Z,101901.73
2019-04-14T05:35:46.453Z,101902.01
2019-04-14T05:38:19.066Z,101897.87
2019-04-14T05:40:52.246Z,101896.43
2019-04-14T05:43:36.982Z,101907.31
2019-04-14T05:45:56.688Z,101906.52
2019-04-14T05:48:29.271Z,101909.62
2019-04-14T05:51:02.075Z,101910.47
2019-04-14T05:53:33.445Z,101907.83
2019-04-14T05:56:05.770Z,101910.48
2019-04-14T05:58:38.205Z,101923.06
2019-04-14T06:01:11.333Z,101924.73
2019-04-14T06:03:43.275Z,101923.70
2019-04-14T06:06:16.459Z,101929.01
2019-04-14T06:08:49.841Z,101926.47
2019-04-14T06:11:22.535Z,101924.80
2019-04-14T06:13:59.796Z,101919.59
2019-04-14T06:16:31.398Z,101934.73
2019-04-14T06:19:02.529Z,101924.34
2019-04-14T06:24:18.199Z,101928.30
2019-04-14T06:26:51.032Z,101926.11
2019-04-14T06:29:24.244Z,101924.63
2019-04-14T06:31:57.226Z,101922.65
2019-04-14T06:34:36.456Z,101935.17
2019-04-14T06:37:26.035Z,101936.05
2019-04-14T06:40:01.334Z,101929.21
2019-04-14T06:42:33.039Z,101930.88
2019-04-14T06:45:04.558Z,101933.74
2019-04-14T06:47:36.000Z,101925.57
2019-04-14T06:50:07.959Z,101933.91
2019-04-14T06:52:39.766Z,101930.85
2019-04-14T06:55:10.756Z,101935.94
2019-04-14T06:57:42.018Z,101936.56
2019-04-14T07:00:13.308Z,101936.16
2019-04-14T07:02:45.515Z,101934.93
2019-04-14T07:05:17.783Z,101936.63
2019-04-14T07:07:57.044Z,101946.90
2019-04-14T07:10:21.377Z,101947.39
2019-04-14T07:12:53.385Z,101951.80
2019-04-14T07:15:25.077Z,101953.48
2019-04-14T07:17:56.476Z,101943.17
2019-04-14T07:20:28.038Z,101949.42
2019-04-14T07:22:59.348Z,101950.54
2019-04-14T07:25:31.033Z,101945.05
2019-04-14T07:28:02.531Z,101952.08
2019-04-14T07:30:33.651Z,101946.14
2019-04-14T07:33:12.440Z,101956.88
2019-04-14T07:36:01.773Z,101955.22
2019-04-14T07:38:50.319Z,101957.59
2019-04-14T07:41:38.804Z,101958.98
2019-04-14T07:44:23.418Z,101956.30
2019-04-14T07:46:54.309Z,101956.73
2019-04-14T07:49:42.799Z,101958.14
2019-04-14T07:52:25.313Z,101962.77
2019-04-14T07:55:07.946Z,101956.28
2019-04-14T07:57:54.108Z,101966.70
2019-04-14T08:00:33.296Z,101961.95
2019-04-14T08:03:07.224Z,101964.26
2019-04-14T08:05:40.224Z,101965.27
2019-04-14T08:08:12.286Z,101963.20
2019-04-14T08:10:43.591Z,101968.27
2019-04-14T08:13:15.025Z,101963.42
2019-04-14T08:15:46.497Z,101970.48
2019-04-14T08:18:18.009Z,101964.49
2019-04-14T08:20:49.315Z,101965.36
2019-04-14T08:23:21.368Z,101966.77
2019-04-14T08:25:52.860Z,101970.73
2019-04-14T08:28:25.277Z,101973.84
2019-04-14T08:30:56.863Z,101967.56
2019-04-14T08:33:28.256Z,101980.05
2019-04-14T08:36:00.225Z,101971.52
2019-04-14T08:38:34.547Z,101973.52
2019-04-14T08:41:05.070Z,101980.15
2019-04-14T08:43:57.238Z,101972.91
2019-04-14T08:46:47.292Z,101982.70
2019-04-14T08:49:26.407Z,101984.31
2019-04-14T08:51:59.763Z,101980.77
2019-04-14T08:54:34.758Z,101985.58
2019-04-14T08:57:24.655Z,101981.83
2019-04-14T08:59:57.576Z,101971.95
2019-04-14T09:02:33.936Z,101979.47
2019-04-14T09:05:08.249Z,101973.84
2019-04-14T09:07:58.032Z,101991.44
2019-04-14T09:10:32.216Z,101983.72
2019-04-14T09:13:04.489Z,101982.16
2019-04-14T09:15:36.006Z,101979.73
2019-04-14T09:18:07.322Z,101982.02
